< < Back
Terminal Aerodrome Forecast


Current Version              Previous Versions:   1  2  3  4  5  6  7  8  9  

Terminal Aerodrome Forecast

540
FTUS42 KCHS 221700
TAFCHS
TAF
KCHS 221721Z 2218/2318 02013KT P6SM SKC
     FM222200 34006KT P6SM SKC
     FM231300 31008KT P6SM SKC=

Latest METAR

445
SAUS80 KWBC 230300 CCB
MTRCHS
METAR KCHS 230256Z 32005KT 10SM CLR 12/07 A3006 RMK AO2 SLP179 T01220072
51010


USA.gov is the U.S. government's official web portal to all federal, state and local government web resources and services.